»·PEaware :: N419SF KSNA-KIFP

N419SF :: KSNA-KIFP

FLIGHT INFORMATION

Flight Status: Arrived
Operator: Privately registered:
United States
More flights under this callsign
Pilot: Kevin S. (409)
Aircraft: Unknown
(DA62)
More flights by this aircraft type
Origin: KSNA John Wayne-Orange Co
United States
Destination: KIFP Laughlin/Bullhead Intl
United States
More flights between these airports :: More routes between these airports
Route: +
File this flight plan on PilotEdge
Remarks:
Altitude:
(Current/Filed)
0ft
Speed:
(Current/Filed)
0kts
Departed: 27-Jul-18 07:57 PM
Arrived: 27-Jul-18 09:26 PM
Distance/Time
Traveled:
186nm/1:29
Distance/Time
To Go:
Arrived

Flight Plot

Page will automatically refresh every two minutes.

Flight plan parsing failed; only flown route is shown


Map Options




Map Legend


Flown Route
Filed Route
Departure Airport
Arrival Airport
Navaid (VOR, NDB)
Fix

Horizontal Profiles

Position Reports

Time Latitude Longitude Heading Altitude Ground
Speed
27-Jul-18 19:37 33.669314 -117.869376 309 60ft 0kts
27-Jul-18 19:38 33.669314 -117.869376 309 60ft 0kts
27-Jul-18 19:39 33.669314 -117.869376 309 60ft 0kts
27-Jul-18 19:40 33.669314 -117.869376 309 60ft 0kts
27-Jul-18 19:41 33.669314 -117.869376 309 60ft 0kts
27-Jul-18 19:42 33.669314 -117.869376 309 60ft 0kts
27-Jul-18 19:43 33.669314 -117.869376 309 60ft 0kts
27-Jul-18 19:44 33.669314 -117.869376 309 60ft 0kts
27-Jul-18 19:45 33.669314 -117.869376 309 60ft 0kts
27-Jul-18 19:46 33.669314 -117.869376 309 60ft 0kts
27-Jul-18 19:47 33.669314 -117.869376 309 60ft 0kts
27-Jul-18 19:48 33.669314 -117.869376 309 60ft 0kts
27-Jul-18 19:49 33.669321 -117.869386 308 60ft 0kts
27-Jul-18 19:50 33.670078 -117.869684 5 60ft 5kts
27-Jul-18 19:51 33.671335 -117.868710 33 60ft 5kts
27-Jul-18 19:52 33.672565 -117.867868 24 60ft 6kts
27-Jul-18 19:53 33.674170 -117.867063 26 60ft 7kts
27-Jul-18 19:54 33.676233 -117.865745 28 60ft 11kts
27-Jul-18 19:55 33.679169 -117.863882 28 60ft 9kts
27-Jul-18 19:56 33.679908 -117.863591 314 60ft 0kts
27-Jul-18 19:57 33.680047 -117.863846 290 60ft 3kts
27-Jul-18 19:58 33.668573 -117.871941 210 284ft 81kts
27-Jul-18 19:59 33.674209 -117.900164 309 655ft 138kts
27-Jul-18 20:00 33.701406 -117.931328 331 1524ft 133kts
27-Jul-18 20:01 33.736049 -117.943552 341 2521ft 128kts
27-Jul-18 20:02 33.772426 -117.955831 341 3001ft 157kts
27-Jul-18 20:03 33.810104 -117.943447 72 3177ft 162kts
27-Jul-18 20:04 33.822740 -117.895572 74 3992ft 146kts
27-Jul-18 20:05 33.835382 -117.848898 73 4657ft 148kts
27-Jul-18 20:06 33.848125 -117.802983 72 5418ft 144kts
27-Jul-18 20:07 33.859310 -117.759856 74 6338ft 131kts
27-Jul-18 20:08 33.870081 -117.717562 72 7131ft 133kts
27-Jul-18 20:09 33.881809 -117.672209 72 7490ft 160kts
27-Jul-18 20:10 33.895924 -117.617578 72 7483ft 176kts
27-Jul-18 20:11 33.910647 -117.560517 72 7474ft 180kts
27-Jul-18 20:12 33.935452 -117.509754 43 7478ft 180kts
27-Jul-18 20:13 33.970607 -117.467765 43 7484ft 181kts
27-Jul-18 20:14 34.006323 -117.424947 43 7489ft 181kts
27-Jul-18 20:15 34.042339 -117.382267 41 7495ft 181kts
27-Jul-18 20:16 34.077294 -117.340344 45 7490ft 182kts
27-Jul-18 20:17 34.111515 -117.298556 44 7490ft 181kts
27-Jul-18 20:18 34.145915 -117.257108 44 7748ft 167kts
27-Jul-18 20:19 34.175544 -117.221351 44 8691ft 140kts
27-Jul-18 20:20 34.201952 -117.189505 44 9488ft 141kts
27-Jul-18 20:21 34.233598 -117.151301 44 9495ft 174kts
27-Jul-18 20:22 34.268504 -117.109054 44 9491ft 181kts
27-Jul-18 20:23 34.299029 -117.072097 44 9487ft 183kts
27-Jul-18 20:24 34.325044 -117.040562 44 9483ft 184kts
27-Jul-18 20:25 34.360715 -116.997271 45 9474ft 185kts
27-Jul-18 20:26 34.397132 -116.953017 45 9461ft 186kts
27-Jul-18 20:27 34.433780 -116.908424 45 9453ft 187kts
27-Jul-18 20:28 34.470592 -116.863561 45 9417ft 188kts
27-Jul-18 20:29 34.506451 -116.819805 46 9417ft 187kts
27-Jul-18 20:30 34.542929 -116.775253 46 9408ft 185kts
27-Jul-18 20:31 34.579187 -116.730891 46 9408ft 185kts
27-Jul-18 20:32 34.615408 -116.686523 46 9408ft 185kts
27-Jul-18 20:33 34.651529 -116.642220 46 9408ft 185kts
27-Jul-18 20:34 34.687646 -116.597866 46 9411ft 185kts
27-Jul-18 20:35 34.723772 -116.553441 46 9409ft 185kts
27-Jul-18 20:36 34.759759 -116.509131 46 9408ft 185kts
27-Jul-18 20:37 34.795839 -116.464019 57 9365ft 185kts
27-Jul-18 20:38 34.812333 -116.406018 73 9381ft 182kts
27-Jul-18 20:39 34.827549 -116.348565 74 9396ft 181kts
27-Jul-18 20:40 34.842987 -116.290250 74 9416ft 181kts
27-Jul-18 20:41 34.858390 -116.231851 74 9436ft 181kts
27-Jul-18 20:42 34.873727 -116.173507 74 9456ft 180kts
27-Jul-18 20:43 34.889013 -116.115326 74 9462ft 181kts
27-Jul-18 20:44 34.904382 -116.056764 74 9459ft 181kts
27-Jul-18 20:45 34.919762 -115.998109 74 9455ft 182kts
27-Jul-18 20:46 34.935159 -115.939213 74 9452ft 182kts
27-Jul-18 20:47 34.950504 -115.880330 74 9450ft 183kts
27-Jul-18 20:48 34.965910 -115.821081 74 9452ft 183kts
27-Jul-18 20:49 34.981206 -115.762124 74 9455ft 183kts
27-Jul-18 20:50 34.996593 -115.702670 74 9461ft 183kts
27-Jul-18 20:51 35.011944 -115.643232 74 9445ft 185kts
27-Jul-18 20:52 35.027344 -115.583474 74 9404ft 186kts
27-Jul-18 20:53 35.042719 -115.523674 74 9363ft 186kts
27-Jul-18 20:54 35.058090 -115.463750 73 9331ft 186kts
27-Jul-18 20:55 35.073536 -115.403770 73 9319ft 185kts
27-Jul-18 20:56 35.088058 -115.346943 74 9319ft 185kts
27-Jul-18 20:57 35.100128 -115.299502 74 9313ft 185kts
27-Jul-18 20:58 35.111080 -115.256357 74 9302ft 184kts
27-Jul-18 20:59 35.125415 -115.199764 74 9285ft 184kts
27-Jul-18 21:00 35.151600 -115.146340 51 9277ft 187kts
27-Jul-18 21:01 35.184789 -115.097142 51 9268ft 183kts
27-Jul-18 21:02 35.217073 -115.049255 51 8624ft 185kts
27-Jul-18 21:03 35.249831 -115.000631 51 8040ft 179kts
27-Jul-18 21:04 35.280285 -114.955329 51 8017ft 170kts
27-Jul-18 21:05 35.310439 -114.910428 51 8019ft 172kts
27-Jul-18 21:06 35.340947 -114.864936 51 8016ft 173kts
27-Jul-18 21:07 35.371429 -114.819417 51 8016ft 173kts
27-Jul-18 21:08 35.401975 -114.773755 51 8015ft 173kts
27-Jul-18 21:09 35.432467 -114.728114 51 8016ft 173kts
27-Jul-18 21:10 35.462946 -114.682427 51 8017ft 173kts
27-Jul-18 21:11 35.502800 -114.662833 332 7219ft 173kts
27-Jul-18 21:12 35.541502 -114.684814 330 6971ft 151kts
27-Jul-18 21:13 35.554018 -114.719339 207 6875ft 137kts
27-Jul-18 21:14 35.518294 -114.703160 150 6773ft 149kts
27-Jul-18 21:15 35.483749 -114.672634 144 6658ft 154kts
27-Jul-18 21:16 35.448927 -114.646088 160 6620ft 141kts
27-Jul-18 21:17 35.414644 -114.621361 149 5819ft 142kts
27-Jul-18 21:18 35.382814 -114.595296 150 5019ft 134kts
27-Jul-18 21:19 35.350735 -114.575701 170 4307ft 124kts
27-Jul-18 21:20 35.315139 -114.571483 176 3613ft 132kts
27-Jul-18 21:21 35.279100 -114.568745 174 2883ft 116kts
27-Jul-18 21:22 35.252553 -114.566746 175 2385ft 84kts
27-Jul-18 21:23 35.232045 -114.565186 170 1979ft 68kts
27-Jul-18 21:24 35.213312 -114.563740 172 1622ft 66kts
27-Jul-18 21:25 35.193259 -114.562247 174 1250ft 79kts
27-Jul-18 21:26 35.173315 -114.560921 171 858ft 67kts
27-Jul-18 21:27 35.156941 -114.559435 179 705ft 35kts
27-Jul-18 21:28 35.155976 -114.556714 93 705ft 4kts
27-Jul-18 21:29 35.156013 -114.556182 66 705ft 0kts
27-Jul-18 21:30 35.156013 -114.556182 66 705ft 0kts
27-Jul-18 21:31 35.156013 -114.556182 66 705ft 0kts
27-Jul-18 21:32 35.156013 -114.556182 66 705ft 0kts
27-Jul-18 21:33 35.156013 -114.556182 66 705ft 0kts
27-Jul-18 21:34 35.156013 -114.556182 66 705ft 0kts

Navigation Log

Ident Type
Flight plan parsing failed, navigation log unavailable